sensor_id;sensor_type;location;lat;lon;timestamp;temperature;humidity
52943;DHT22;38809;53.300;6.614;2022-12-18T00:01:46;-2.40;99.90
52943;DHT22;38809;53.300;6.614;2022-12-18T00:04:20;0.00;99.90
52943;DHT22;38809;53.300;6.614;2022-12-18T00:06:46;-2.40;99.90
52943;DHT22;38809;53.300;6.614;2022-12-18T00:09:12;-2.40;99.90
52943;DHT22;38809;53.300;6.614;2022-12-18T00:11:38;-2.40;99.90
52943;DHT22;38809;53.300;6.614;2022-12-18T00:14:03;-1.10;99.90
52943;DHT22;38809;53.300;6.614;2022-12-18T00:16:29;-2.40;99.90
52943;DHT22;38809;53.300;6.614;2022-12-18T00:18:59;-2.40;99.90
52943;DHT22;38809;53.300;6.614;2022-12-18T00:21:26;-1.00;99.90
52943;DHT22;38809;53.300;6.614;2022-12-18T00:23:52;-2.40;99.90
52943;DHT22;38809;53.300;6.614;2022-12-18T00:26:24;-1.70;99.90
52943;DHT22;38809;53.300;6.614;2022-12-18T00:28:50;-1.90;99.90
52943;DHT22;38809;53.300;6.614;2022-12-18T00:31:20;-2.60;99.90
52943;DHT22;38809;53.300;6.614;2022-12-18T00:33:46;-0.40;99.90
52943;DHT22;38809;53.300;6.614;2022-12-18T00:36:20;-2.50;99.90
52943;DHT22;38809;53.300;6.614;2022-12-18T00:38:47;-2.40;99.90
52943;DHT22;38809;53.300;6.614;2022-12-18T00:41:14;-3.00;99.90
52943;DHT22;38809;53.300;6.614;2022-12-18T00:44:00;-0.80;99.90
52943;DHT22;38809;53.300;6.614;2022-12-18T00:46:26;-2.50;99.90
52943;DHT22;38809;53.300;6.614;2022-12-18T00:48:52;-2.50;99.90
52943;DHT22;38809;53.300;6.614;2022-12-18T00:51:18;-2.50;99.90
52943;DHT22;38809;53.300;6.614;2022-12-18T00:53:43;-2.50;99.90
52943;DHT22;38809;53.300;6.614;2022-12-18T00:56:09;-2.50;99.90
52943;DHT22;38809;53.300;6.614;2022-12-18T00:58:35;-2.50;99.90
52943;DHT22;38809;53.300;6.614;2022-12-18T01:01:00;-2.50;99.90
52943;DHT22;38809;53.300;6.614;2022-12-18T01:03:26;-2.50;99.90
52943;DHT22;38809;53.300;6.614;2022-12-18T01:05:52;-2.60;99.90
52943;DHT22;38809;53.300;6.614;2022-12-18T01:08:17;-2.70;99.90
52943;DHT22;38809;53.300;6.614;2022-12-18T01:10:43;-2.40;99.90
52943;DHT22;38809;53.300;6.614;2022-12-18T01:13:09;-0.90;99.90
52943;DHT22;38809;53.300;6.614;2022-12-18T01:15:34;-3.00;99.90
52943;DHT22;38809;53.300;6.614;2022-12-18T01:18:00;-2.80;99.90
52943;DHT22;38809;53.300;6.614;2022-12-18T01:20:26;-0.80;99.90
52943;DHT22;38809;53.300;6.614;2022-12-18T01:22:51;-2.80;99.90
52943;DHT22;38809;53.300;6.614;2022-12-18T01:25:17;-2.80;99.90
52943;DHT22;38809;53.300;6.614;2022-12-18T01:27:43;-2.90;99.90
52943;DHT22;38809;53.300;6.614;2022-12-18T01:30:09;-2.90;99.90
52943;DHT22;38809;53.300;6.614;2022-12-18T01:32:35;-2.90;99.90
52943;DHT22;38809;53.300;6.614;2022-12-18T01:35:00;-3.90;99.90
52943;DHT22;38809;53.300;6.614;2022-12-18T01:37:26;-3.00;99.90
52943;DHT22;38809;53.300;6.614;2022-12-18T01:39:52;-2.90;99.90
52943;DHT22;38809;53.300;6.614;2022-12-18T01:42:20;-3.00;99.90
52943;DHT22;38809;53.300;6.614;2022-12-18T01:50:36;-3.00;99.90
52943;DHT22;38809;53.300;6.614;2022-12-18T01:53:11;-3.20;99.90
52943;DHT22;38809;53.300;6.614;2022-12-18T01:55:47;-3.00;99.90
52943;DHT22;38809;53.300;6.614;2022-12-18T01:58:14;-2.80;99.90
52943;DHT22;38809;53.300;6.614;2022-12-18T02:00:40;-4.00;99.90
52943;DHT22;38809;53.300;6.614;2022-12-18T02:03:06;-1.40;99.90
52943;DHT22;38809;53.300;6.614;2022-12-18T02:11:07;-3.20;99.90
52943;DHT22;38809;53.300;6.614;2022-12-18T02:16:28;-3.20;99.90
52943;DHT22;38809;53.300;6.614;2022-12-18T02:19:04;-3.30;99.90
52943;DHT22;38809;53.300;6.614;2022-12-18T02:24:38;-3.30;99.90
52943;DHT22;38809;53.300;6.614;2022-12-18T02:27:07;-3.40;99.90
52943;DHT22;38809;53.300;6.614;2022-12-18T02:29:43;-3.40;99.90
52943;DHT22;38809;53.300;6.614;2022-12-18T02:32:14;-3.40;99.90
52943;DHT22;38809;53.300;6.614;2022-12-18T02:34:43;-3.40;99.90
52943;DHT22;38809;53.300;6.614;2022-12-18T02:37:13;-3.50;99.90
52943;DHT22;38809;53.300;6.614;2022-12-18T02:39:42;-3.50;99.90
52943;DHT22;38809;53.300;6.614;2022-12-18T02:42:09;-2.70;99.90
52943;DHT22;38809;53.300;6.614;2022-12-18T02:44:47;-3.70;99.90
52943;DHT22;38809;53.300;6.614;2022-12-18T02:47:15;-3.50;99.90
52943;DHT22;38809;53.300;6.614;2022-12-18T03:03:14;-3.50;99.90
52943;DHT22;38809;53.300;6.614;2022-12-18T03:05:59;-3.60;99.90
52943;DHT22;38809;53.300;6.614;2022-12-18T03:08:35;-3.50;99.90
52943;DHT22;38809;53.300;6.614;2022-12-18T03:11:08;-3.50;99.90
52943;DHT22;38809;53.300;6.614;2022-12-18T03:13:36;-4.10;99.90
52943;DHT22;38809;53.300;6.614;2022-12-18T03:16:04;-3.70;99.90
52943;DHT22;38809;53.300;6.614;2022-12-18T03:18:36;-3.60;99.90
52943;DHT22;38809;53.300;6.614;2022-12-18T03:21:06;-3.70;99.90
52943;DHT22;38809;53.300;6.614;2022-12-18T03:23:36;-4.10;99.90
52943;DHT22;38809;53.300;6.614;2022-12-18T03:26:08;-3.50;99.90
52943;DHT22;38809;53.300;6.614;2022-12-18T03:28:38;-1.20;99.90
52943;DHT22;38809;53.300;6.614;2022-12-18T03:31:07;-4.80;99.90
52943;DHT22;38809;53.300;6.614;2022-12-18T03:33:38;-3.60;99.90
52943;DHT22;38809;53.300;6.614;2022-12-18T03:36:06;-3.60;99.90
52943;DHT22;38809;53.300;6.614;2022-12-18T03:38:32;-3.50;99.90
52943;DHT22;38809;53.300;6.614;2022-12-18T03:43:40;-3.60;99.90
52943;DHT22;38809;53.300;6.614;2022-12-18T03:46:23;-3.60;99.90
52943;DHT22;38809;53.300;6.614;2022-12-18T03:48:55;-2.50;99.90
52943;DHT22;38809;53.300;6.614;2022-12-18T03:51:36;-1.30;99.90
52943;DHT22;38809;53.300;6.614;2022-12-18T03:54:04;-4.90;99.90
52943;DHT22;38809;53.300;6.614;2022-12-18T03:56:35;-2.90;99.90
52943;DHT22;38809;53.300;6.614;2022-12-18T03:59:03;-2.00;99.90
52943;DHT22;38809;53.300;6.614;2022-12-18T04:01:40;-3.80;99.90
52943;DHT22;38809;53.300;6.614;2022-12-18T04:04:09;-4.20;99.90
52943;DHT22;38809;53.300;6.614;2022-12-18T04:06:36;-3.70;99.90
52943;DHT22;38809;53.300;6.614;2022-12-18T04:09:03;-4.30;99.90
52943;DHT22;38809;53.300;6.614;2022-12-18T04:11:29;-4.00;99.90
52943;DHT22;38809;53.300;6.614;2022-12-18T04:13:58;-3.80;99.90
52943;DHT22;38809;53.300;6.614;2022-12-18T04:16:27;-3.80;99.90
52943;DHT22;38809;53.300;6.614;2022-12-18T04:18:54;-2.00;99.90
52943;DHT22;38809;53.300;6.614;2022-12-18T04:21:20;-3.80;99.90
52943;DHT22;38809;53.300;6.614;2022-12-18T04:23:45;-3.80;99.90
52943;DHT22;38809;53.300;6.614;2022-12-18T04:26:11;-4.30;99.90
52943;DHT22;38809;53.300;6.614;2022-12-18T04:28:37;-1.50;99.90
52943;DHT22;38809;53.300;6.614;2022-12-18T04:31:03;-3.80;99.90
52943;DHT22;38809;53.300;6.614;2022-12-18T04:33:29;-3.70;99.90
52943;DHT22;38809;53.300;6.614;2022-12-18T04:35:54;-3.90;99.90
52943;DHT22;38809;53.300;6.614;2022-12-18T04:38:20;-3.10;99.90
52943;DHT22;38809;53.300;6.614;2022-12-18T04:40:46;-4.90;99.90
52943;DHT22;38809;53.300;6.614;2022-12-18T04:43:11;-4.00;99.90
52943;DHT22;38809;53.300;6.614;2022-12-18T04:45:37;-5.10;99.90
52943;DHT22;38809;53.300;6.614;2022-12-18T04:48:03;-4.00;99.90
52943;DHT22;38809;53.300;6.614;2022-12-18T04:50:30;-4.20;99.90
52943;DHT22;38809;53.300;6.614;2022-12-18T04:52:56;-4.00;99.90
52943;DHT22;38809;53.300;6.614;2022-12-18T04:55:21;-4.00;99.90
52943;DHT22;38809;53.300;6.614;2022-12-18T04:57:47;-4.00;99.90
52943;DHT22;38809;53.300;6.614;2022-12-18T05:00:13;-3.90;99.90
52943;DHT22;38809;53.300;6.614;2022-12-18T05:02:39;-4.10;99.90
52943;DHT22;38809;53.300;6.614;2022-12-18T05:05:05;-4.10;99.90
52943;DHT22;38809;53.300;6.614;2022-12-18T05:07:31;-4.50;99.90
52943;DHT22;38809;53.300;6.614;2022-12-18T05:09:57;-3.30;99.90
52943;DHT22;38809;53.300;6.614;2022-12-18T05:12:22;-4.20;99.90
52943;DHT22;38809;53.300;6.614;2022-12-18T05:14:48;-4.20;99.90
52943;DHT22;38809;53.300;6.614;2022-12-18T05:17:14;-4.00;99.90
52943;DHT22;38809;53.300;6.614;2022-12-18T05:19:39;-4.20;99.90
52943;DHT22;38809;53.300;6.614;2022-12-18T05:22:08;-4.20;99.90
52943;DHT22;38809;53.300;6.614;2022-12-18T05:24:34;-4.10;99.90
52943;DHT22;38809;53.300;6.614;2022-12-18T05:27:00;-4.20;99.90
52943;DHT22;38809;53.300;6.614;2022-12-18T05:29:26;-5.40;99.90
52943;DHT22;38809;53.300;6.614;2022-12-18T05:31:51;-4.60;99.90
52943;DHT22;38809;53.300;6.614;2022-12-18T05:34:17;-4.10;99.90
52943;DHT22;38809;53.300;6.614;2022-12-18T05:36:43;-4.20;99.90
52943;DHT22;38809;53.300;6.614;2022-12-18T05:39:08;-4.20;99.90
52943;DHT22;38809;53.300;6.614;2022-12-18T05:41:34;-4.30;99.90
52943;DHT22;38809;53.300;6.614;2022-12-18T05:44:00;-4.20;99.90
52943;DHT22;38809;53.300;6.614;2022-12-18T05:46:26;-3.60;99.90
52943;DHT22;38809;53.300;6.614;2022-12-18T05:48:52;-4.30;99.90
52943;DHT22;38809;53.300;6.614;2022-12-18T05:51:19;-4.50;99.90
52943;DHT22;38809;53.300;6.614;2022-12-18T05:53:47;-4.30;99.90
52943;DHT22;38809;53.300;6.614;2022-12-18T05:56:15;-4.20;99.90
52943;DHT22;38809;53.300;6.614;2022-12-18T05:58:41;-4.60;99.90
52943;DHT22;38809;53.300;6.614;2022-12-18T06:01:11;-4.30;99.90
52943;DHT22;38809;53.300;6.614;2022-12-18T06:03:38;-4.30;99.90
52943;DHT22;38809;53.300;6.614;2022-12-18T06:06:04;-4.20;99.90
52943;DHT22;38809;53.300;6.614;2022-12-18T06:08:29;-3.80;99.90
52943;DHT22;38809;53.300;6.614;2022-12-18T06:10:55;-3.00;99.90
52943;DHT22;38809;53.300;6.614;2022-12-18T06:13:22;-4.40;99.90
52943;DHT22;38809;53.300;6.614;2022-12-18T06:15:48;-3.60;99.90
52943;DHT22;38809;53.300;6.614;2022-12-18T06:18:13;-4.50;99.90
52943;DHT22;38809;53.300;6.614;2022-12-18T06:20:39;-4.40;99.90
52943;DHT22;38809;53.300;6.614;2022-12-18T06:23:07;-4.40;99.90
52943;DHT22;38809;53.300;6.614;2022-12-18T06:25:37;-4.50;99.90
52943;DHT22;38809;53.300;6.614;2022-12-18T06:28:03;-3.30;99.90
52943;DHT22;38809;53.300;6.614;2022-12-18T06:30:29;-2.80;99.90
52943;DHT22;38809;53.300;6.614;2022-12-18T06:32:54;-4.40;99.90
52943;DHT22;38809;53.300;6.614;2022-12-18T06:35:20;-4.40;99.90
52943;DHT22;38809;53.300;6.614;2022-12-18T06:37:46;-4.40;99.90
52943;DHT22;38809;53.300;6.614;2022-12-18T06:40:11;-4.50;99.90
52943;DHT22;38809;53.300;6.614;2022-12-18T06:42:37;-3.40;99.90
52943;DHT22;38809;53.300;6.614;2022-12-18T06:45:03;-3.50;99.90
52943;DHT22;38809;53.300;6.614;2022-12-18T06:47:29;-3.20;99.90
52943;DHT22;38809;53.300;6.614;2022-12-18T06:49:54;-4.60;99.90
52943;DHT22;38809;53.300;6.614;2022-12-18T06:52:20;-4.80;99.90
52943;DHT22;38809;53.300;6.614;2022-12-18T06:54:46;-5.00;99.90
52943;DHT22;38809;53.300;6.614;2022-12-18T06:57:11;-4.60;99.90
52943;DHT22;38809;53.300;6.614;2022-12-18T06:59:37;-4.90;99.90
52943;DHT22;38809;53.300;6.614;2022-12-18T07:02:03;-4.60;99.90
52943;DHT22;38809;53.300;6.614;2022-12-18T07:04:29;-4.30;99.90
52943;DHT22;38809;53.300;6.614;2022-12-18T07:06:55;-3.50;99.90
52943;DHT22;38809;53.300;6.614;2022-12-18T07:09:20;-5.80;99.90
52943;DHT22;38809;53.300;6.614;2022-12-18T07:11:46;-5.00;99.90
52943;DHT22;38809;53.300;6.614;2022-12-18T07:14:12;-4.60;99.90
52943;DHT22;38809;53.300;6.614;2022-12-18T07:16:38;-4.60;99.90
52943;DHT22;38809;53.300;6.614;2022-12-18T07:19:03;-4.60;99.90
52943;DHT22;38809;53.300;6.614;2022-12-18T07:21:29;-3.30;99.90
52943;DHT22;38809;53.300;6.614;2022-12-18T07:23:55;-6.20;99.90
52943;DHT22;38809;53.300;6.614;2022-12-18T07:26:21;-5.80;99.90
52943;DHT22;38809;53.300;6.614;2022-12-18T07:28:47;-4.60;99.90
52943;DHT22;38809;53.300;6.614;2022-12-18T07:31:21;-2.60;99.90
52943;DHT22;38809;53.300;6.614;2022-12-18T07:33:47;-6.80;99.90
52943;DHT22;38809;53.300;6.614;2022-12-18T07:36:13;-4.10;99.90
52943;DHT22;38809;53.300;6.614;2022-12-18T07:38:40;-4.70;99.90
52943;DHT22;38809;53.300;6.614;2022-12-18T07:41:12;-4.50;99.90
52943;DHT22;38809;53.300;6.614;2022-12-18T07:43:39;-4.60;99.90
52943;DHT22;38809;53.300;6.614;2022-12-18T07:46:05;-3.50;99.90
52943;DHT22;38809;53.300;6.614;2022-12-18T07:48:31;-4.50;99.90
52943;DHT22;38809;53.300;6.614;2022-12-18T07:51:02;-4.60;99.90
52943;DHT22;38809;53.300;6.614;2022-12-18T07:53:28;-2.90;99.90
52943;DHT22;38809;53.300;6.614;2022-12-18T07:55:58;-4.60;99.90
52943;DHT22;38809;53.300;6.614;2022-12-18T07:58:25;-4.60;99.90
52943;DHT22;38809;53.300;6.614;2022-12-18T08:00:51;-4.50;99.90
52943;DHT22;38809;53.300;6.614;2022-12-18T08:03:18;-3.60;99.90
52943;DHT22;38809;53.300;6.614;2022-12-18T08:05:43;-6.60;99.90
52943;DHT22;38809;53.300;6.614;2022-12-18T08:08:09;-3.90;99.90
52943;DHT22;38809;53.300;6.614;2022-12-18T08:10:35;-4.50;99.90
52943;DHT22;38809;53.300;6.614;2022-12-18T08:13:00;-4.80;99.90
52943;DHT22;38809;53.300;6.614;2022-12-18T08:15:26;-5.10;99.90
52943;DHT22;38809;53.300;6.614;2022-12-18T08:17:52;-5.00;99.90
52943;DHT22;38809;53.300;6.614;2022-12-18T08:20:18;-4.20;99.90
52943;DHT22;38809;53.300;6.614;2022-12-18T08:22:44;-3.80;99.90
52943;DHT22;38809;53.300;6.614;2022-12-18T08:25:10;-4.40;99.90
52943;DHT22;38809;53.300;6.614;2022-12-18T08:27:36;-3.20;99.90
52943;DHT22;38809;53.300;6.614;2022-12-18T08:30:03;-4.60;99.90
52943;DHT22;38809;53.300;6.614;2022-12-18T08:32:29;-4.30;99.90
52943;DHT22;38809;53.300;6.614;2022-12-18T08:34:54;-3.20;99.90
52943;DHT22;38809;53.300;6.614;2022-12-18T08:37:20;-4.70;99.90
52943;DHT22;38809;53.300;6.614;2022-12-18T08:39:46;-2.80;99.90
52943;DHT22;38809;53.300;6.614;2022-12-18T08:44:56;-4.50;99.90
52943;DHT22;38809;53.300;6.614;2022-12-18T08:47:22;-3.20;99.90
52943;DHT22;38809;53.300;6.614;2022-12-18T08:49:47;-4.40;99.90
52943;DHT22;38809;53.300;6.614;2022-12-18T08:52:13;-4.40;99.90
52943;DHT22;38809;53.300;6.614;2022-12-18T08:54:39;-4.40;99.90
52943;DHT22;38809;53.300;6.614;2022-12-18T08:57:05;-4.30;99.90
52943;DHT22;38809;53.300;6.614;2022-12-18T09:04:23;-4.20;99.90
52943;DHT22;38809;53.300;6.614;2022-12-18T09:06:49;-4.40;99.90
52943;DHT22;38809;53.300;6.614;2022-12-18T09:09:15;-4.10;99.90
52943;DHT22;38809;53.300;6.614;2022-12-18T09:11:40;-3.90;99.90
52943;DHT22;38809;53.300;6.614;2022-12-18T09:14:06;-4.00;99.90
52943;DHT22;38809;53.300;6.614;2022-12-18T09:16:32;-4.40;99.90
52943;DHT22;38809;53.300;6.614;2022-12-18T09:19:01;-3.90;99.90
52943;DHT22;38809;53.300;6.614;2022-12-18T09:21:30;-3.80;99.90
52943;DHT22;38809;53.300;6.614;2022-12-18T09:26:23;-3.70;99.90
52943;DHT22;38809;53.300;6.614;2022-12-18T09:28:50;-3.60;99.90
52943;DHT22;38809;53.300;6.614;2022-12-18T09:31:17;-3.70;99.90
52943;DHT22;38809;53.300;6.614;2022-12-18T09:33:43;-5.10;99.90
52943;DHT22;38809;53.300;6.614;2022-12-18T09:36:13;-0.20;99.90
52943;DHT22;38809;53.300;6.614;2022-12-18T09:38:39;-2.80;99.90
52943;DHT22;38809;53.300;6.614;2022-12-18T09:41:15;-4.10;99.90
52943;DHT22;38809;53.300;6.614;2022-12-18T09:43:54;-4.30;99.90
52943;DHT22;38809;53.300;6.614;2022-12-18T09:46:28;-3.20;99.90
52943;DHT22;38809;53.300;6.614;2022-12-18T09:48:59;-3.20;99.90
52943;DHT22;38809;53.300;6.614;2022-12-18T09:51:33;-3.20;99.90
52943;DHT22;38809;53.300;6.614;2022-12-18T09:54:07;-3.10;99.90
52943;DHT22;38809;53.300;6.614;2022-12-18T09:56:40;-1.60;99.90
52943;DHT22;38809;53.300;6.614;2022-12-18T09:59:26;-2.20;99.90
52943;DHT22;38809;53.300;6.614;2022-12-18T10:01:52;-3.10;99.90
52943;DHT22;38809;53.300;6.614;2022-12-18T10:04:18;-2.80;99.90
52943;DHT22;38809;53.300;6.614;2022-12-18T10:07:06;-3.10;99.90
52943;DHT22;38809;53.300;6.614;2022-12-18T10:12:40;-3.80;99.90
52943;DHT22;38809;53.300;6.614;2022-12-18T10:15:16;-2.70;99.90
52943;DHT22;38809;53.300;6.614;2022-12-18T10:17:51;-2.60;99.90
52943;DHT22;38809;53.300;6.614;2022-12-18T10:23:14;-2.30;99.90
52943;DHT22;38809;53.300;6.614;2022-12-18T10:28:15;-2.00;99.90
52943;DHT22;38809;53.300;6.614;2022-12-18T10:30:42;-2.00;99.90
52943;DHT22;38809;53.300;6.614;2022-12-18T10:33:15;-1.80;99.90
52943;DHT22;38809;53.300;6.614;2022-12-18T10:35:42;-1.80;99.90
52943;DHT22;38809;53.300;6.614;2022-12-18T10:40:56;-2.00;99.90
52943;DHT22;38809;53.300;6.614;2022-12-18T10:43:33;-0.10;99.90
52943;DHT22;38809;53.300;6.614;2022-12-18T10:48:28;-2.20;99.90
52943;DHT22;38809;53.300;6.614;2022-12-18T10:50:55;-2.10;99.90
52943;DHT22;38809;53.300;6.614;2022-12-18T10:53:25;-2.20;99.90
52943;DHT22;38809;53.300;6.614;2022-12-18T10:55:53;-2.20;99.90
52943;DHT22;38809;53.300;6.614;2022-12-18T11:00:45;-1.40;99.90
52943;DHT22;38809;53.300;6.614;2022-12-18T11:06:04;-1.70;99.90
52943;DHT22;38809;53.300;6.614;2022-12-18T11:10:57;-2.20;99.90
52943;DHT22;38809;53.300;6.614;2022-12-18T11:13:25;-2.20;99.90
52943;DHT22;38809;53.300;6.614;2022-12-18T11:15:51;-2.10;99.90
52943;DHT22;38809;53.300;6.614;2022-12-18T11:18:22;-0.20;99.90
52943;DHT22;38809;53.300;6.614;2022-12-18T11:20:58;-2.00;99.90
52943;DHT22;38809;53.300;6.614;2022-12-18T11:23:25;0.00;99.90
52943;DHT22;38809;53.300;6.614;2022-12-18T11:25:57;-2.10;99.90
52943;DHT22;38809;53.300;6.614;2022-12-18T11:34:00;-2.00;99.90
52943;DHT22;38809;53.300;6.614;2022-12-18T11:36:32;-2.40;99.90
52943;DHT22;38809;53.300;6.614;2022-12-18T11:39:02;-2.00;99.90
52943;DHT22;38809;53.300;6.614;2022-12-18T11:41:39;-2.00;99.90
52943;DHT22;38809;53.300;6.614;2022-12-18T11:44:32;-1.90;99.90
52943;DHT22;38809;53.300;6.614;2022-12-18T11:47:03;-1.90;99.90
52943;DHT22;38809;53.300;6.614;2022-12-18T11:49:35;-0.60;99.90
52943;DHT22;38809;53.300;6.614;2022-12-18T11:52:21;-0.10;99.90
52943;DHT22;38809;53.300;6.614;2022-12-18T11:54:53;-1.80;99.90
52943;DHT22;38809;53.300;6.614;2022-12-18T12:00:16;0.20;99.90
52943;DHT22;38809;53.300;6.614;2022-12-18T12:06:07;-3.30;99.90
52943;DHT22;38809;53.300;6.614;2022-12-18T12:24:46;-1.80;99.90
52943;DHT22;38809;53.300;6.614;2022-12-18T12:27:35;-1.70;99.90
52943;DHT22;38809;53.300;6.614;2022-12-18T12:30:18;-1.40;99.90
52943;DHT22;38809;53.300;6.614;2022-12-18T12:38:46;-1.60;99.90
52943;DHT22;38809;53.300;6.614;2022-12-18T12:41:19;-1.70;99.90
52943;DHT22;38809;53.300;6.614;2022-12-18T12:44:07;0.40;99.90
52943;DHT22;38809;53.300;6.614;2022-12-18T12:46:37;-1.50;99.90
52943;DHT22;38809;53.300;6.614;2022-12-18T12:49:14;-1.60;99.90
52943;DHT22;38809;53.300;6.614;2022-12-18T12:51:44;-1.50;99.90
52943;DHT22;38809;53.300;6.614;2022-12-18T12:54:22;-0.50;99.90
52943;DHT22;38809;53.300;6.614;2022-12-18T12:57:15;-1.70;99.90
52943;DHT22;38809;53.300;6.614;2022-12-18T13:00:12;-1.60;99.90
52943;DHT22;38809;53.300;6.614;2022-12-18T13:05:36;0.50;99.90
52943;DHT22;38809;53.300;6.614;2022-12-18T13:08:06;-1.50;99.90
52943;DHT22;38809;53.300;6.614;2022-12-18T13:13:00;-0.40;99.90
52943;DHT22;38809;53.300;6.614;2022-12-18T13:15:35;-1.40;99.90
52943;DHT22;38809;53.300;6.614;2022-12-18T13:20:38;-0.30;99.90
52943;DHT22;38809;53.300;6.614;2022-12-18T13:23:37;-1.30;99.90
52943;DHT22;38809;53.300;6.614;2022-12-18T13:28:53;-0.80;99.90
52943;DHT22;38809;53.300;6.614;2022-12-18T13:34:16;-1.20;99.90
52943;DHT22;38809;53.300;6.614;2022-12-18T13:36:42;-1.20;99.90
52943;DHT22;38809;53.300;6.614;2022-12-18T13:41:35;-1.20;99.90
52943;DHT22;38809;53.300;6.614;2022-12-18T13:44:12;0.60;99.90
52943;DHT22;38809;53.300;6.614;2022-12-18T13:46:46;-1.30;99.90
52943;DHT22;38809;53.300;6.614;2022-12-18T13:51:41;-1.20;99.90
52943;DHT22;38809;53.300;6.614;2022-12-18T13:54:23;0.90;99.90
52943;DHT22;38809;53.300;6.614;2022-12-18T13:56:50;-1.30;99.90
52943;DHT22;38809;53.300;6.614;2022-12-18T14:01:47;0.80;99.90
52943;DHT22;38809;53.300;6.614;2022-12-18T14:04:24;-1.10;99.90
52943;DHT22;38809;53.300;6.614;2022-12-18T14:06:54;-1.30;99.90
52943;DHT22;38809;53.300;6.614;2022-12-18T14:09:26;0.80;99.90
52943;DHT22;38809;53.300;6.614;2022-12-18T14:11:53;-0.80;99.90
52943;DHT22;38809;53.300;6.614;2022-12-18T14:14:43;0.60;99.90
52943;DHT22;38809;53.300;6.614;2022-12-18T14:17:13;-1.00;99.90
52943;DHT22;38809;53.300;6.614;2022-12-18T14:19:48;0.00;99.90
52943;DHT22;38809;53.300;6.614;2022-12-18T14:22:21;-1.30;99.90
52943;DHT22;38809;53.300;6.614;2022-12-18T14:27:47;-1.30;99.90
52943;DHT22;38809;53.300;6.614;2022-12-18T14:30:33;-1.30;99.90
52943;DHT22;38809;53.300;6.614;2022-12-18T14:33:11;-1.70;99.90
52943;DHT22;38809;53.300;6.614;2022-12-18T14:35:40;-1.40;99.90
52943;DHT22;38809;53.300;6.614;2022-12-18T14:38:22;0.50;99.90
52943;DHT22;38809;53.300;6.614;2022-12-18T14:43:27;0.80;99.90
52943;DHT22;38809;53.300;6.614;2022-12-18T14:45:54;-1.20;99.90
52943;DHT22;38809;53.300;6.614;2022-12-18T14:50:58;-2.00;99.90
52943;DHT22;38809;53.300;6.614;2022-12-18T14:55:56;0.80;99.90
52943;DHT22;38809;53.300;6.614;2022-12-18T14:58:22;1.50;99.90
52943;DHT22;38809;53.300;6.614;2022-12-18T15:00:47;-1.80;99.90
52943;DHT22;38809;53.300;6.614;2022-12-18T15:03:18;0.20;99.90
52943;DHT22;38809;53.300;6.614;2022-12-18T15:05:45;-2.60;99.90
52943;DHT22;38809;53.300;6.614;2022-12-18T15:08:35;-2.00;99.90
52943;DHT22;38809;53.300;6.614;2022-12-18T15:11:02;-2.60;99.90
52943;DHT22;38809;53.300;6.614;2022-12-18T15:13:28;-1.70;99.90
52943;DHT22;38809;53.300;6.614;2022-12-18T15:15:56;-1.80;99.90
52943;DHT22;38809;53.300;6.614;2022-12-18T15:18:31;0.60;99.90
52943;DHT22;38809;53.300;6.614;2022-12-18T15:21:00;-1.80;99.90
52943;DHT22;38809;53.300;6.614;2022-12-18T15:23:57;-0.80;99.90
52943;DHT22;38809;53.300;6.614;2022-12-18T15:26:22;-1.50;99.90
52943;DHT22;38809;53.300;6.614;2022-12-18T15:28:52;-1.80;99.90
52943;DHT22;38809;53.300;6.614;2022-12-18T15:31:34;-1.30;99.90
52943;DHT22;38809;53.300;6.614;2022-12-18T15:34:13;-1.90;99.90
52943;DHT22;38809;53.300;6.614;2022-12-18T15:36:40;-1.90;99.90
52943;DHT22;38809;53.300;6.614;2022-12-18T15:39:06;-1.90;99.90
52943;DHT22;38809;53.300;6.614;2022-12-18T15:41:34;-2.40;99.90
52943;DHT22;38809;53.300;6.614;2022-12-18T15:44:00;-2.70;99.90
52943;DHT22;38809;53.300;6.614;2022-12-18T15:46:26;-1.80;99.90
52943;DHT22;38809;53.300;6.614;2022-12-18T15:48:56;0.10;99.90
52943;DHT22;38809;53.300;6.614;2022-12-18T15:51:34;-2.00;99.90
52943;DHT22;38809;53.300;6.614;2022-12-18T15:54:03;0.40;99.90
52943;DHT22;38809;53.300;6.614;2022-12-18T15:56:29;-2.00;99.90
52943;DHT22;38809;53.300;6.614;2022-12-18T15:59:15;-2.00;99.90
52943;DHT22;38809;53.300;6.614;2022-12-18T16:01:44;-0.80;99.90
52943;DHT22;38809;53.300;6.614;2022-12-18T16:04:12;-0.90;99.90
52943;DHT22;38809;53.300;6.614;2022-12-18T16:09:05;-2.00;99.90
52943;DHT22;38809;53.300;6.614;2022-12-18T16:11:32;0.30;99.90
52943;DHT22;38809;53.300;6.614;2022-12-18T16:14:22;0.50;99.90
52943;DHT22;38809;53.300;6.614;2022-12-18T16:16:57;-2.00;99.90
52943;DHT22;38809;53.300;6.614;2022-12-18T16:19:24;-1.80;99.90
52943;DHT22;38809;53.300;6.614;2022-12-18T16:21:52;-2.00;99.90
52943;DHT22;38809;53.300;6.614;2022-12-18T16:24:21;-0.80;99.90
52943;DHT22;38809;53.300;6.614;2022-12-18T16:26:50;-1.10;99.90
52943;DHT22;38809;53.300;6.614;2022-12-18T16:29:23;-2.00;99.90
52943;DHT22;38809;53.300;6.614;2022-12-18T16:31:59;-0.70;99.90
52943;DHT22;38809;53.300;6.614;2022-12-18T16:34:29;-0.30;99.90
52943;DHT22;38809;53.300;6.614;2022-12-18T16:37:00;-1.90;99.90
52943;DHT22;38809;53.300;6.614;2022-12-18T16:39:27;-1.20;99.90
52943;DHT22;38809;53.300;6.614;2022-12-18T16:41:54;-2.30;99.90
52943;DHT22;38809;53.300;6.614;2022-12-18T16:44:20;-0.10;99.90
52943;DHT22;38809;53.300;6.614;2022-12-18T16:46:46;-2.00;99.90
52943;DHT22;38809;53.300;6.614;2022-12-18T16:49:16;-1.90;99.90
52943;DHT22;38809;53.300;6.614;2022-12-18T16:51:43;-0.30;99.90
52943;DHT22;38809;53.300;6.614;2022-12-18T16:54:10;0.00;99.90
52943;DHT22;38809;53.300;6.614;2022-12-18T16:56:36;-0.30;99.90
52943;DHT22;38809;53.300;6.614;2022-12-18T16:59:03;-0.40;99.90
52943;DHT22;38809;53.300;6.614;2022-12-18T17:01:29;-1.90;99.90
52943;DHT22;38809;53.300;6.614;2022-12-18T17:04:04;-0.70;99.90
52943;DHT22;38809;53.300;6.614;2022-12-18T17:06:33;0.90;99.90
52943;DHT22;38809;53.300;6.614;2022-12-18T17:09:01;-2.20;99.90
52943;DHT22;38809;53.300;6.614;2022-12-18T17:11:29;0.20;99.90
52943;DHT22;38809;53.300;6.614;2022-12-18T17:13:55;-1.20;99.90
52943;DHT22;38809;53.300;6.614;2022-12-18T17:16:21;-1.20;99.90
52943;DHT22;38809;53.300;6.614;2022-12-18T17:18:47;-2.80;99.90
52943;DHT22;38809;53.300;6.614;2022-12-18T17:21:14;-0.60;99.90
52943;DHT22;38809;53.300;6.614;2022-12-18T17:23:40;-1.00;99.90
52943;DHT22;38809;53.300;6.614;2022-12-18T17:26:06;-1.60;99.90
52943;DHT22;38809;53.300;6.614;2022-12-18T17:28:34;-1.60;99.90
52943;DHT22;38809;53.300;6.614;2022-12-18T17:31:01;-0.20;99.90
52943;DHT22;38809;53.300;6.614;2022-12-18T17:33:27;-1.60;99.90
52943;DHT22;38809;53.300;6.614;2022-12-18T17:35:52;-1.60;99.90
52943;DHT22;38809;53.300;6.614;2022-12-18T17:38:18;-1.50;99.90
52943;DHT22;38809;53.300;6.614;2022-12-18T17:40:44;0.70;99.90
52943;DHT22;38809;53.300;6.614;2022-12-18T17:43:10;-1.90;99.90
52943;DHT22;38809;53.300;6.614;2022-12-18T17:45:37;-1.60;99.90
52943;DHT22;38809;53.300;6.614;2022-12-18T17:48:07;-0.50;99.90
52943;DHT22;38809;53.300;6.614;2022-12-18T17:50:34;0.70;99.90
52943;DHT22;38809;53.300;6.614;2022-12-18T17:53:01;-0.90;99.90
52943;DHT22;38809;53.300;6.614;2022-12-18T17:55:27;-2.00;99.90
52943;DHT22;38809;53.300;6.614;2022-12-18T17:57:53;-0.40;99.90